Frankfurt am Main International Airport EDDF

Flugplatz Daten

Name: Frankfurt am Main International Airport

Ident: EDDF

Lat: 50,02640152

Long: 8,543129921

Platzhöhe: 364 ft

IataCode: FRA

City: Frankfurt-am-Main

Homepage: http://www.airportcity-frankfurt.com/

Metar

2022/08/14 06:50
EDDF 140650Z 06009KT CAVOK 24/15 Q1011 NOSIG

Taf

2022/08/14 06:28
TAF EDDF 140500Z 1406/1512 05009KT CAVOK
BECMG 1411/1414 12009KT
BECMG 1417/1420 05005KT
BECMG 1422/1424 22008KT PROB30
TEMPO 1503/1507 SHRA SCT060CB

Webcams

Highway
Gewünschte Webcam nicht vorhanden? Dann fügen Sie eine hinzu. Sie wird dann so schnell wie möglich freigeschaltet
Url: Title: